Terminal Aerodrome Forecast
Issued by NWS

Home | Current Version | Previous Version | Graphics & Text | Print | Product List | Glossary On
Versions: 1 2 3 4 5 6 7 8 9 10 11 12 13 14 15 16 17 18 19 20 21
000
FTUS43 KBIS 200524
TAFDIK
TAF
KDIK 200524Z 2006/2106 19010KT P6SM BKN250
     FM201000 24011G21KT P6SM BKN250
     FM201700 27017G29KT P6SM BKN250
     FM202100 31021G30KT P6SM SCT200=

USA.gov is the U.S. government's official web portal to all federal, state and local government web resources and services.